Time;durP1;ratioP1;P1;durP2;ratioP2;P2;SDS_P1;SDS_P2;PMS_P1;PMS_P2;Temp;Humidity;BMP_temperature;BMP_pressure;BME280_temperature;BME280_humidity;BME280_pressure;Samples;Min_cycle;Max_cycle;Signal;HPM_P1;HPM_P2
2023/11/08 00:00:44;;;;;;;21.52;12.25;;;;;;;6.27;81.79;99932.69;1721493;82;25628;-66
2023/11/08 00:03:15;;;;;;;23.27;12.88;;;;;;;6.23;81.88;99934.36;1721471;82;25827;-66
2023/11/08 00:05:44;;;;;;;21.05;12.18;;;;;;;6.19;82.01;99931.98;1721387;83;25478;-66
2023/11/08 00:08:10;;;;;;;19.48;11.93;;;;;;;6.16;82.09;99937.40;1721567;83;25619;-66
2023/11/08 00:10:36;;;;;;;18.87;12.43;;;;;;;6.13;82.09;99934.46;1721447;83;25699;-66
2023/11/08 00:13:03;;;;;;;21.93;12.37;;;;;;;6.09;82.15;99939.61;1721510;83;25622;-66
2023/11/08 00:15:31;;;;;;;22.55;12.75;;;;;;;6.05;82.28;99935.13;1721452;83;27326;-66
2023/11/08 00:17:58;;;;;;;23.52;12.88;;;;;;;6.01;82.25;99934.08;1721343;83;25398;-66
2023/11/08 00:20:25;;;;;;;22.85;13.22;;;;;;;5.98;82.62;99936.27;1725291;82;25415;-65
2023/11/08 00:22:52;;;;;;;23.57;13.30;;;;;;;5.94;82.35;99935.22;1733114;82;25552;-67
2023/11/08 00:25:18;;;;;;;21.65;13.10;;;;;;;5.92;82.66;99929.31;1716259;82;25615;-66
2023/11/08 00:27:44;;;;;;;23.62;12.28;;;;;;;5.89;83.02;99931.25;1716164;82;28337;-67
2023/11/08 00:30:12;;;;;;;24.57;12.93;;;;;;;5.86;83.00;99935.05;1733142;82;25632;-67
2023/11/08 00:32:38;;;;;;;21.93;12.00;;;;;;;5.83;83.15;99929.70;1716228;82;25426;-67
2023/11/08 00:35:05;;;;;;;23.95;13.78;;;;;;;5.82;83.24;99940.16;1733067;82;25673;-66
2023/11/08 00:37:31;;;;;;;24.75;13.03;;;;;;;5.78;83.13;99930.55;1733134;82;26885;-67
2023/11/08 00:39:57;;;;;;;24.72;13.22;;;;;;;5.76;83.23;99931.93;1733162;82;27932;-67
2023/11/08 00:42:24;;;;;;;20.50;12.23;;;;;;;5.74;82.88;99927.39;1716212;82;25520;-67
2023/11/08 00:44:50;;;;;;;26.55;13.40;;;;;;;5.72;83.27;99928.20;1733315;82;25656;-67
2023/11/08 00:47:16;;;;;;;24.92;13.68;;;;;;;5.71;83.50;99930.09;1733274;82;27857;-68
2023/11/08 00:49:42;;;;;;;29.80;13.32;;;;;;;5.69;83.57;99922.88;1733413;82;25473;-67
2023/11/08 00:52:11;;;;;;;19.32;12.40;;;;;;;5.66;83.41;99915.39;1733288;82;28280;-67
2023/11/08 00:54:37;;;;;;;20.10;13.32;;;;;;;5.64;83.14;99915.44;1733025;82;25615;-66
2023/11/08 00:57:05;;;;;;;26.93;12.82;;;;;;;5.59;83.55;99905.55;1733080;82;25484;-66
2023/11/08 00:59:31;;;;;;;19.85;12.28;;;;;;;5.55;83.58;99908.52;1733097;82;27893;-66
2023/11/08 01:01:57;;;;;;;23.75;14.23;;;;;;;5.50;83.84;99914.77;1733252;82;25450;-67
2023/11/08 01:04:23;;;;;;;24.02;14.07;;;;;;;5.48;84.05;99904.04;1733096;82;27417;-67
2023/11/08 01:06:49;;;;;;;18.73;12.60;;;;;;;5.42;84.08;99900.07;1733041;82;25391;-66
2023/11/08 01:09:15;;;;;;;20.72;13.05;;;;;;;5.40;84.23;99902.24;1733137;82;25595;-67
2023/11/08 01:11:42;;;;;;;24.72;13.68;;;;;;;5.37;84.42;99902.02;1733094;82;25487;-67
2023/11/08 01:14:09;;;;;;;23.62;13.13;;;;;;;5.35;84.53;99897.48;1715982;82;25659;-66
2023/11/08 01:16:35;;;;;;;23.83;13.85;;;;;;;5.34;84.64;99897.21;1733218;82;27344;-66
2023/11/08 01:19:02;;;;;;;25.35;14.33;;;;;;;5.31;84.46;99902.61;1682257;82;25778;-66
2023/11/08 01:21:29;;;;;;;21.65;13.28;;;;;;;5.31;84.88;99899.94;1725850;82;25440;-67
2023/11/08 01:23:55;;;;;;;21.82;13.15;;;;;;;5.29;85.07;99895.37;1721542;83;25649;-66
2023/11/08 01:26:22;;;;;;;24.23;13.83;;;;;;;5.29;85.29;99893.23;1721605;83;25554;-67
2023/11/08 01:28:49;;;;;;;21.93;13.13;;;;;;;5.27;85.55;99894.86;1721547;83;27332;-67
2023/11/08 01:31:15;;;;;;;25.37;13.95;;;;;;;5.28;85.58;99887.60;1721463;83;25585;-68
2023/11/08 01:33:42;;;;;;;21.52;13.32;;;;;;;5.27;85.50;99884.13;1721696;83;25399;-67
2023/11/08 01:36:08;;;;;;;22.15;13.08;;;;;;;5.27;85.55;99888.70;1721744;83;25622;-67
2023/11/08 01:38:35;;;;;;;25.40;14.95;;;;;;;5.27;85.67;99882.00;1721748;83;25636;-67
2023/11/08 01:41:03;;;;;;;25.97;13.75;;;;;;;5.27;85.92;99884.69;1721724;82;27396;-66
2023/11/08 01:43:33;;;;;;;26.45;13.85;;;;;;;5.28;85.97;99884.41;1721544;83;25600;-66
2023/11/08 01:46:21;;;;;;;27.05;14.43;;;;;;;5.29;86.02;99880.63;1721641;83;25468;-67
2023/11/08 01:48:49;;;;;;;24.65;14.10;;;;;;;5.29;86.18;99881.96;1708768;83;25506;-67
2023/11/08 01:51:18;;;;;;;23.67;14.80;;;;;;;5.31;86.34;99882.50;1709235;83;25602;-67
2023/11/08 01:53:47;;;;;;;28.98;14.60;;;;;;;5.33;86.31;99882.19;1721704;83;28019;-67
2023/11/08 01:56:16;;;;;;;29.90;14.80;;;;;;;5.34;86.43;99878.44;1721589;83;25583;-66
2023/11/08 01:58:45;;;;;;;25.00;14.38;;;;;;;5.33;86.49;99878.16;1721784;83;29686;-67
2023/11/08 02:01:13;;;;;;;26.95;14.95;;;;;;;5.33;86.61;99878.98;1721634;83;25635;-67
2023/11/08 02:03:41;;;;;;;23.35;14.53;;;;;;;5.34;86.45;99871.19;1721585;83;25573;-67
2023/11/08 02:06:15;;;;;;;24.77;13.70;;;;;;;5.34;86.55;99867.70;1721559;83;27360;-67
2023/11/08 02:08:42;;;;;;;23.27;14.20;;;;;;;5.34;86.23;99872.52;1721451;82;26037;-67
2023/11/08 02:11:09;;;;;;;26.42;14.30;;;;;;;5.33;86.29;99871.46;1721577;83;25443;-67
2023/11/08 02:13:36;;;;;;;25.12;13.83;;;;;;;5.32;86.14;99870.67;1721537;83;25583;-67
2023/11/08 02:16:05;;;;;;;26.00;13.68;;;;;;;5.31;86.14;99873.11;1721566;83;25655;-67
2023/11/08 02:18:32;;;;;;;20.27;12.43;;;;;;;5.30;85.88;99866.14;1721657;83;27285;-68
2023/11/08 02:21:03;;;;;;;27.05;14.38;;;;;;;5.27;85.80;99862.68;1716569;82;25445;-67
2023/11/08 02:23:31;;;;;;;28.15;15.00;;;;;;;5.27;85.80;99867.25;1703009;84;25406;-67
2023/11/08 02:25:57;;;;;;;23.65;15.08;;;;;;;5.26;86.24;99865.64;1702800;84;25683;-67
2023/11/08 02:28:24;;;;;;;24.60;15.15;;;;;;;5.22;86.26;99866.20;1702910;84;25639;-67
2023/11/08 02:30:58;;;;;;;25.17;14.58;;;;;;;5.20;86.55;99867.58;1702910;84;27276;-66
2023/11/08 02:33:27;;;;;;;24.90;15.20;;;;;;;5.19;86.61;99861.43;1702330;84;25553;-66
2023/11/08 02:35:57;;;;;;;26.82;15.45;;;;;;;5.20;86.79;99860.88;1702975;84;25425;-67
2023/11/08 02:38:23;;;;;;;;;;;;;;;5.21;87.00;99858.44;1705424;84;25704;-67
2023/11/08 02:40:50;;;;;;;26.97;15.38;;;;;;;5.21;87.04;99868.64;1702946;84;25395;-67
2023/11/08 02:43:17;;;;;;;26.02;15.05;;;;;;;5.21;87.15;99865.14;1702904;84;27903;-65
2023/11/08 02:45:43;;;;;;;20.75;14.28;;;;;;;5.23;87.10;99874.52;1702810;84;25661;-67
2023/11/08 02:48:11;;;;;;;25.55;14.30;;;;;;;5.24;87.10;99857.88;1678622;84;25449;-67
2023/11/08 02:50:39;;;;;;;20.97;14.30;;;;;;;5.26;87.07;99864.30;1702875;84;25657;-67
2023/11/08 02:53:08;;;;;;;24.90;15.85;;;;;;;5.24;87.09;99865.41;1702922;84;25613;-67
2023/11/08 02:55:39;;;;;;;28.20;15.10;;;;;;;5.33;87.26;99885.69;1703193;84;27475;-67
2023/11/08 02:58:06;;;;;;;27.20;15.75;;;;;;;5.33;87.26;99885.69;1702814;84;25625;-67
2023/11/08 03:00:32;;;;;;;23.52;15.38;;;;;;;5.24;87.12;99872.63;1702917;84;25546;-67
2023/11/08 03:02:58;;;;;;;23.10;15.25;;;;;;;5.23;87.19;99867.02;1702852;84;25640;-67
2023/11/08 03:05:25;;;;;;;26.42;16.90;;;;;;;5.23;87.05;99872.38;1702916;84;25663;-68
2023/11/08 03:07:54;;;;;;;27.67;15.50;;;;;;;5.22;87.20;99882.29;1702891;84;27389;-68
2023/11/08 03:10:23;;;;;;;25.25;15.35;;;;;;;5.21;87.37;99878.55;1702791;84;25599;-68
2023/11/08 03:12:52;;;;;;;26.80;16.17;;;;;;;5.19;87.48;99883.41;1702859;84;25466;-69
2023/11/08 03:15:23;;;;;;;;;;;;;;;5.20;87.61;99879.65;1705396;84;25576;-69
2023/11/08 03:17:52;;;;;;;25.57;14.70;;;;;;;5.20;87.74;99882.33;1703006;84;25459;-67
2023/11/08 03:20:19;;;;;;;29.45;15.48;;;;;;;5.17;87.58;99879.66;1702866;84;27345;-66
2023/11/08 03:22:46;;;;;;;28.40;15.55;;;;;;;5.17;87.72;99879.66;1727951;82;25498;-67
2023/11/08 03:25:16;;;;;;;26.90;16.12;;;;;;;5.20;88.10;99886.36;1733216;82;25621;-67
2023/11/08 03:27:43;;;;;;;26.05;15.32;;;;;;;5.18;88.18;99881.82;1733198;82;26295;-67
2023/11/08 03:30:14;;;;;;;25.30;16.17;;;;;;;5.19;88.12;99883.41;1733170;82;25635;-67
2023/11/08 03:32:42;;;;;;;27.55;15.35;;;;;;;5.20;88.23;99883.67;1733184;82;28035;-67
2023/11/08 03:35:15;;;;;;;24.47;15.88;;;;;;;5.22;88.35;99884.18;1733220;82;25635;-67
2023/11/08 03:37:47;;;;;;;27.17;16.55;;;;;;;5.22;88.26;99889.00;1733205;82;25634;-67
2023/11/08 03:40:15;;;;;;;27.00;16.17;;;;;;;5.23;88.41;99887.92;1732156;82;25641;-67
2023/11/08 03:42:42;;;;;;;28.87;15.68;;;;;;;5.24;88.36;99882.02;1733308;82;25620;-67
2023/11/08 03:45:12;;;;;;;28.77;16.70;;;;;;;5.27;88.47;99879.32;1733163;82;27326;-67
2023/11/08 03:47:40;;;;;;;30.60;16.90;;;;;;;5.28;88.38;99880.38;1730527;82;33079;-67
2023/11/08 03:50:09;;;;;;;28.50;15.00;;;;;;;5.30;88.46;99879.55;1733423;82;25576;-67
2023/11/08 03:52:37;;;;;;;26.30;16.32;;;;;;;5.32;88.50;99881.95;1730588;82;25623;-67
2023/11/08 03:55:06;;;;;;;30.70;16.02;;;;;;;5.32;88.65;99876.03;1733187;82;25651;-67
2023/11/08 03:57:33;;;;;;;23.80;15.35;;;;;;;5.33;88.58;99873.63;1716556;82;27509;-67
2023/11/08 04:00:00;;;;;;;32.70;15.80;;;;;;;5.35;88.68;99877.37;1715937;82;25636;-67
2023/11/08 04:02:27;;;;;;;25.32;15.35;;;;;;;5.35;88.64;99874.69;1733188;82;25426;-67
2023/11/08 04:04:54;;;;;;;27.32;16.60;;;;;;;5.35;88.65;99874.13;1716060;82;25695;-67
2023/11/08 04:07:20;;;;;;;28.02;16.95;;;;;;;5.36;88.54;99868.22;1716151;82;25462;-67
2023/11/08 04:09:47;;;;;;;27.25;16.40;;;;;;;5.34;88.48;99871.19;1733356;82;27965;-67
2023/11/08 04:12:15;;;;;;;26.82;15.83;;;;;;;5.34;88.43;99869.84;1733334;82;25467;-67
2023/11/08 04:14:42;;;;;;;30.52;15.98;;;;;;;5.33;88.32;99870.13;1733409;82;25516;-67
2023/11/08 04:17:09;;;;;;;32.20;17.60;;;;;;;5.31;88.44;99876.31;1733339;82;26189;-67
2023/11/08 04:19:37;;;;;;;32.90;15.98;;;;;;;5.31;88.52;99877.66;1733259;82;25624;-66
2023/11/08 04:22:06;;;;;;;25.85;15.88;;;;;;;5.29;88.52;99873.92;1728572;82;27326;-67
2023/11/08 04:24:33;;;;;;;30.77;16.35;;;;;;;5.29;88.40;99871.78;1721424;82;25481;-66
2023/11/08 04:27:02;;;;;;;24.75;16.12;;;;;;;5.27;88.72;99876.09;1721480;83;25610;-66
2023/11/08 04:29:29;;;;;;;26.75;16.40;;;;;;;5.26;88.70;99879.05;1721610;83;35115;-66
2023/11/08 04:31:55;;;;;;;24.45;15.58;;;;;;;5.26;88.76;99876.37;1721579;83;25439;-67
2023/11/08 04:34:21;;;;;;;24.47;15.78;;;;;;;5.24;88.75;99876.12;1721516;83;27361;-67
2023/11/08 04:36:49;;;;;;;28.12;16.45;;;;;;;5.23;88.84;99872.38;1721367;83;25639;-67
2023/11/08 04:39:18;;;;;;;27.40;16.30;;;;;;;5.21;88.72;99874.00;1721414;83;25426;-68
2023/11/08 04:41:45;;;;;;;26.30;16.70;;;;;;;5.19;88.62;99872.16;1721649;83;26357;-67
2023/11/08 04:44:12;;;;;;;28.17;16.80;;;;;;;5.30;88.61;99890.28;1721465;83;25402;-67
2023/11/08 04:46:41;;;;;;;25.62;15.35;;;;;;;5.13;88.36;99872.48;1721440;83;27376;-67
2023/11/08 04:49:09;;;;;;;27.15;16.73;;;;;;;5.09;88.12;99863.39;1721343;83;25581;-66
2023/11/08 04:51:36;;;;;;;28.80;15.65;;;;;;;5.05;88.46;99870.66;1721409;83;25470;-67
2023/11/08 04:54:05;;;;;;;25.45;16.52;;;;;;;4.99;88.37;99874.48;1721428;83;25617;-66
2023/11/08 04:56:32;;;;;;;;;;;;;;;4.95;88.56;99872.08;1724032;83;25414;-66
2023/11/08 04:58:58;;;;;;;30.25;16.87;;;;;;;4.91;88.79;99873.73;1721393;83;28026;-66
2023/11/08 05:01:28;;;;;;;24.37;16.20;;;;;;;4.86;89.11;99879.93;1721316;82;25643;-66
2023/11/08 05:03:53;;;;;;;29.60;17.35;;;;;;;4.84;89.52;99882.09;1708478;83;25590;-64
2023/11/08 05:06:19;;;;;;;31.82;17.77;;;;;;;4.83;89.83;99879.70;1721431;83;25507;-66
2023/11/08 05:08:46;;;;;;;25.20;16.45;;;;;;;4.83;90.11;99883.72;1721439;83;25392;-65
2023/11/08 05:11:12;;;;;;;31.70;18.45;;;;;;;4.84;90.26;99881.30;1721441;83;28099;-65
2023/11/08 05:13:39;;;;;;;30.55;18.30;;;;;;;4.84;90.34;99886.67;1721366;83;25468;-65
2023/11/08 05:16:06;;;;;;;24.05;16.17;;;;;;;4.86;90.29;99881.82;1708536;83;25459;-67
2023/11/08 05:18:32;;;;;;;28.62;17.15;;;;;;;4.86;90.37;99881.27;1721367;83;25604;-65
2023/11/08 05:20:58;;;;;;;31.42;17.00;;;;;;;4.86;90.19;99881.82;1721449;83;25573;-67
2023/11/08 05:23:25;;;;;;;29.10;17.10;;;;;;;4.86;90.53;99884.50;1730770;82;27331;-67
2023/11/08 05:25:51;;;;;;;26.70;16.97;;;;;;;4.84;90.30;99882.09;1732989;82;26009;-67
2023/11/08 05:28:18;;;;;;;29.15;17.48;;;;;;;4.81;90.23;99889.91;1733119;82;25528;-66
2023/11/08 05:30:46;;;;;;;27.62;16.37;;;;;;;4.80;90.33;99887.77;1733056;82;27758;-67
2023/11/08 05:33:12;;;;;;;30.70;18.10;;;;;;;4.78;90.57;99892.59;1733157;82;25657;-67
2023/11/08 05:35:39;;;;;;;28.90;18.40;;;;;;;4.77;90.64;99889.66;1715978;82;27222;-67
2023/11/08 05:38:05;;;;;;;29.37;17.40;;;;;;;4.79;90.90;99897.42;1733060;82;25722;-66
2023/11/08 05:40:33;;;;;;;27.05;17.37;;;;;;;4.80;91.02;99889.63;1733092;82;25451;-67
2023/11/08 05:43:00;;;;;;;28.60;16.55;;;;;;;4.79;91.06;99887.50;1733033;82;25668;-67
2023/11/08 05:45:26;;;;;;;29.90;17.85;;;;;;;4.80;91.03;99889.63;1733113;82;25593;-68
2023/11/08 05:47:52;;;;;;;26.12;16.87;;;;;;;4.79;91.10;99895.54;1733097;82;27267;-68
2023/11/08 05:50:19;;;;;;;31.90;19.17;;;;;;;4.79;91.35;99898.77;1733033;82;25461;-68
2023/11/08 05:52:45;;;;;;;32.65;18.23;;;;;;;4.80;91.45;99911.06;1733101;82;25612;-67
2023/11/08 05:55:12;;;;;;;28.02;16.40;;;;;;;4.81;91.53;99909.45;1733012;82;25671;-67
2023/11/08 05:57:38;;;;;;;31.20;17.57;;;;;;;4.82;91.62;99911.61;1715999;82;25502;-66
2023/11/08 06:00:07;;;;;;;29.67;18.17;;;;;;;4.84;91.65;99905.42;1733047;82;26634;-67
2023/11/08 06:02:35;;;;;;;36.38;18.57;;;;;;;4.85;91.73;99915.05;1733350;82;25692;-67
2023/11/08 06:05:04;;;;;;;27.87;17.32;;;;;;;4.87;91.90;99912.91;1733421;82;25565;-67
2023/11/08 06:07:32;;;;;;;28.80;18.30;;;;;;;4.91;92.07;99921.19;1716658;82;26147;-67
2023/11/08 06:10:00;;;;;;;32.70;17.73;;;;;;;4.93;92.19;99915.80;1733410;82;25577;-65
2023/11/08 06:12:28;;;;;;;27.98;17.52;;;;;;;4.96;92.20;99919.26;1733403;82;28444;-66
2023/11/08 06:14:55;;;;;;;28.35;16.97;;;;;;;4.99;92.34;99921.38;1733108;82;25541;-66
2023/11/08 06:17:25;;;;;;;26.70;17.07;;;;;;;5.02;92.50;99923.52;1732961;82;25414;-67
2023/11/08 06:19:52;;;;;;;28.17;17.17;;;;;;;5.05;92.63;99928.84;1733142;82;26116;-67
2023/11/08 06:22:21;;;;;;;25.68;17.05;;;;;;;5.08;92.55;99922.92;1726975;81;25480;-66
2023/11/08 06:24:49;;;;;;;28.30;17.12;;;;;;;5.14;92.66;99932.53;1702930;84;27402;-66
2023/11/08 06:27:15;;;;;;;28.15;16.02;;;;;;;5.19;92.56;99928.98;1701863;84;25553;-67
2023/11/08 06:29:41;;;;;;;29.63;16.55;;;;;;;5.21;92.67;99930.31;1702920;84;25492;-66
2023/11/08 06:32:08;;;;;;;29.90;17.80;;;;;;;5.26;92.57;99926.80;1702878;84;25998;-66
2023/11/08 06:34:34;;;;;;;25.57;16.55;;;;;;;5.30;92.58;99935.87;1702948;84;25639;-65
2023/11/08 06:37:01;;;;;;;29.30;16.87;;;;;;;5.33;92.58;99930.47;1678315;84;27338;-65
2023/11/08 06:39:28;;;;;;;25.82;16.30;;;;;;;5.37;92.52;99926.94;1702791;84;25760;-66
2023/11/08 06:41:57;;;;;;;27.35;16.62;;;;;;;5.40;92.46;99931.75;1702921;84;25392;-67
2023/11/08 06:44:23;;;;;;;25.47;17.30;;;;;;;5.46;92.55;99934.38;1703042;84;25876;-67
2023/11/08 06:46:52;;;;;;;29.15;17.42;;;;;;;5.51;92.61;99935.13;1702949;84;25454;-66
2023/11/08 06:49:19;;;;;;;26.48;15.23;;;;;;;5.57;92.58;99933.20;1703150;84;27884;-66
2023/11/08 06:51:46;;;;;;;30.23;17.00;;;;;;;5.63;92.56;99936.62;1702810;84;25816;-66
2023/11/08 06:54:14;;;;;;;30.88;16.30;;;;;;;5.67;92.58;99930.42;1702926;84;25595;-66
2023/11/08 06:56:42;;;;;;;27.40;16.35;;;;;;;5.73;92.51;99932.50;1702855;84;25699;-66
2023/11/08 06:59:09;;;;;;;26.97;16.02;;;;;;;5.79;92.48;99927.34;1702913;84;25450;-66
2023/11/08 07:01:37;;;;;;;26.65;14.95;;;;;;;5.86;92.79;99925.66;1702882;84;27335;-66
2023/11/08 07:04:05;;;;;;;26.75;15.88;;;;;;;5.94;92.69;99929.03;1702804;84;25679;-66
2023/11/08 07:06:31;;;;;;;27.70;15.55;;;;;;;6.01;92.81;99933.56;1678603;84;25458;-65
2023/11/08 07:08:58;;;;;;;26.35;15.68;;;;;;;6.06;92.48;99935.36;1702842;84;26217;-67
2023/11/08 07:11:27;;;;;;;26.27;15.88;;;;;;;6.11;92.43;99928.59;1702893;84;25640;-67
2023/11/08 07:13:54;;;;;;;23.67;15.08;;;;;;;6.16;92.31;99935.23;1702977;84;27341;-67
2023/11/08 07:16:20;;;;;;;27.87;16.20;;;;;;;6.25;92.66;99941.58;1702784;84;25716;-66
2023/11/08 07:18:46;;;;;;;25.23;15.48;;;;;;;6.33;92.61;99942.29;1702855;84;25412;-66
2023/11/08 07:21:20;;;;;;;25.80;15.10;;;;;;;6.42;92.33;99944.30;1702916;84;25599;-66
2023/11/08 07:23:49;;;;;;;24.50;15.38;;;;;;;6.49;92.10;99936.70;1723089;82;25650;-66
2023/11/08 07:26:16;;;;;;;27.42;15.78;;;;;;;6.54;92.09;99940.67;1733334;82;27342;-66
2023/11/08 07:28:46;;;;;;;28.75;16.07;;;;;;;6.67;92.66;99938.57;1733151;82;25481;-67
2023/11/08 07:31:18;;;;;;;23.87;15.70;;;;;;;7.06;94.42;99940.69;1733360;82;25450;-67
2023/11/08 07:33:43;;;;;;;30.05;16.25;;;;;;;7.45;96.37;99940.28;1732325;82;25542;-66
2023/11/08 07:36:11;;;;;;;26.20;16.32;;;;;;;8.16;98.90;99939.23;1716320;82;25619;-66
2023/11/08 07:38:38;;;;;;;23.27;14.93;;;;;;;8.65;95.94;99946.28;1733161;82;27316;-66
2023/11/08 07:41:04;;;;;;;24.27;14.45;;;;;;;9.20;95.19;99943.94;1733054;82;25651;-67
2023/11/08 07:43:30;;;;;;;21.97;14.50;;;;;;;9.60;92.84;99938.02;1733193;82;25656;-66
2023/11/08 07:46:01;;;;;;;20.20;13.18;;;;;;;10.09;92.40;99947.50;1733120;82;27740;-67
2023/11/08 07:48:27;;;;;;;21.33;12.65;;;;;;;10.10;86.66;99941.00;1733171;82;25647;-66
2023/11/08 07:50:54;;;;;;;24.05;13.35;;;;;;;9.95;85.49;99943.57;1733260;82;27285;-67
2023/11/08 07:53:22;;;;;;;19.77;12.55;;;;;;;9.86;84.07;99944.89;1733057;82;25644;-66
2023/11/08 07:55:49;;;;;;;19.20;12.55;;;;;;;9.72;83.72;99947.70;1733153;82;25392;-65
2023/11/08 07:58:17;;;;;;;24.60;12.82;;;;;;;9.69;83.76;99951.59;1733127;82;25656;-67
2023/11/08 08:00:48;;;;;;;20.68;12.90;;;;;;;9.65;83.36;99966.80;1733232;82;25462;-67
2023/11/08 08:03:15;;;;;;;21.97;12.20;;;;;;;9.55;83.30;99963.80;1733163;82;27386;-67
2023/11/08 08:05:45;;;;;;;19.98;12.43;;;;;;;9.50;83.05;99963.94;1733231;82;25547;-66
2023/11/08 08:08:14;;;;;;;20.85;12.43;;;;;;;9.43;82.99;99963.05;1733170;82;25623;-67
2023/11/08 08:10:44;;;;;;;27.22;13.78;;;;;;;9.43;83.24;99959.00;1733138;82;25568;-66
2023/11/08 08:13:09;;;;;;;21.25;13.08;;;;;;;9.38;83.02;99955.62;1733220;82;25472;-67
2023/11/08 08:15:35;;;;;;;20.88;13.22;;;;;;;9.36;83.15;99955.92;1733245;82;28024;-66
2023/11/08 08:18:01;;;;;;;21.40;13.70;;;;;;;9.42;83.83;99949.30;1733024;82;25561;-67
2023/11/08 08:20:30;;;;;;;20.20;13.08;;;;;;;9.46;83.40;99951.61;1733150;82;25436;-66
2023/11/08 08:22:56;;;;;;;18.40;11.80;;;;;;;9.50;83.34;99953.95;1727802;81;25687;-67
2023/11/08 08:25:24;;;;;;;21.57;13.20;;;;;;;9.53;83.51;99951.17;1702818;84;25383;-67
2023/11/08 08:27:51;;;;;;;23.47;12.70;;;;;;;9.62;83.83;99958.78;1702842;84;27923;-67
2023/11/08 08:30:17;;;;;;;22.65;13.45;;;;;;;9.70;83.62;99948.58;1702706;84;25554;-66
2023/11/08 08:32:45;;;;;;;23.20;11.80;;;;;;;9.81;83.88;99951.79;1702854;84;25663;-66
2023/11/08 08:35:12;;;;;;;17.42;11.93;;;;;;;9.91;83.70;99946.67;1702798;84;25689;-67
2023/11/08 08:37:40;;;;;;;22.27;12.47;;;;;;;10.00;83.32;99942.64;1702846;84;25595;-67
2023/11/08 08:40:12;;;;;;;21.95;11.53;;;;;;;10.04;83.46;99946.30;1702783;84;27379;-67
2023/11/08 08:42:41;;;;;;;22.25;12.30;;;;;;;10.08;82.79;99944.58;1699878;84;25586;-67
2023/11/08 08:45:11;;;;;;;21.40;12.00;;;;;;;10.14;82.54;99939.25;1702811;84;25552;-67
2023/11/08 08:47:38;;;;;;;;;;;;;;;10.18;82.60;99952.92;1705343;84;26173;-67
2023/11/08 08:50:14;;;;;;;17.92;10.88;;;;;;;10.18;82.02;99946.98;1702838;84;25383;-67
2023/11/08 08:52:45;;;;;;;18.85;11.18;;;;;;;10.19;81.69;99943.72;1680018;84;27422;-67
2023/11/08 08:55:13;;;;;;;16.67;11.08;;;;;;;10.25;82.17;99949.23;1702770;84;25615;-67
2023/11/08 08:57:49;;;;;;;14.00;10.28;;;;;;;10.32;81.86;99941.48;1678447;84;25433;-67
2023/11/08 09:00:21;;;;;;;19.92;9.68;;;;;;;10.43;82.26;99952.21;1702790;84;25637;-67
2023/11/08 09:02:48;;;;;;;18.70;10.43;;;;;;;10.51;81.97;99956.05;1702890;84;25614;-67
2023/11/08 09:05:14;;;;;;;18.32;10.63;;;;;;;10.56;81.12;99960.52;1702784;84;27330;-67
2023/11/08 09:07:40;;;;;;;17.92;10.35;;;;;;;10.55;80.36;99958.91;1702742;84;25598;-68
2023/11/08 09:10:09;;;;;;;16.23;10.55;;;;;;;10.52;79.79;99959.55;1678130;84;25442;-66
2023/11/08 09:12:36;;;;;;;16.62;10.00;;;;;;;10.51;80.36;99956.05;1656301;84;25637;-68
2023/11/08 09:15:07;;;;;;;16.77;10.20;;;;;;;10.51;79.68;99959.32;1702839;84;25493;-68
2023/11/08 09:17:35;;;;;;;14.25;9.53;;;;;;;10.52;79.74;99949.55;1678602;84;27452;-68
2023/11/08 09:20:08;;;;;;;13.90;8.98;;;;;;;10.51;79.85;99953.34;1702746;84;25623;-67
2023/11/08 09:22:37;;;;;;;15.23;9.50;;;;;;;10.58;80.32;99956.94;1702868;84;25470;-66
2023/11/08 09:25:07;;;;;;;15.08;9.80;;;;;;;10.65;80.30;99953.98;1730341;82;26230;-67
2023/11/08 09:27:36;;;;;;;14.55;9.03;;;;;;;10.76;79.92;99955.02;1716727;82;25411;-67
2023/11/08 09:30:05;;;;;;;13.93;9.53;;;;;;;10.75;79.28;99958.86;1733288;82;27405;-69
2023/11/08 09:32:33;;;;;;;17.10;10.23;;;;;;;10.72;78.97;99956.78;1716534;82;25394;-68
2023/11/08 09:34:59;;;;;;;12.65;9.13;;;;;;;10.66;78.39;99957.50;1733142;82;25594;-67
2023/11/08 09:37:28;;;;;;;14.33;8.75;;;;;;;10.65;78.98;99961.31;1733359;82;26640;-68
2023/11/08 09:39:56;;;;;;;13.68;8.75;;;;;;;10.65;78.66;99955.91;1733332;82;25624;-68
2023/11/08 09:42:26;;;;;;;15.40;8.75;;;;;;;10.70;78.79;99953.04;1733443;82;27697;-69
2023/11/08 09:44:51;;;;;;;13.93;8.73;;;;;;;10.78;79.04;99950.90;1733233;82;25724;-68
2023/11/08 09:47:19;;;;;;;12.80;8.35;;;;;;;10.90;79.12;99946.77;1733291;82;25467;-69
2023/11/08 09:49:51;;;;;;;11.48;8.18;;;;;;;11.00;78.80;99943.73;1733293;82;26412;-68
2023/11/08 09:52:20;;;;;;;11.68;8.40;;;;;;;11.11;78.82;99946.33;1733388;82;25426;-68
2023/11/08 09:54:47;;;;;;;11.33;8.33;;;;;;;11.19;78.98;99942.82;1733331;82;27473;-68
2023/11/08 09:57:14;;;;;;;16.30;8.35;;;;;;;11.35;78.65;99943.66;1733318;82;25461;-67
2023/11/08 09:59:41;;;;;;;15.45;9.23;;;;;;;11.48;77.87;99943.24;1733229;82;25633;-68
2023/11/08 10:02:11;;;;;;;15.58;8.40;;;;;;;11.59;77.40;99939.86;1733233;82;25616;-67
2023/11/08 10:04:39;;;;;;;15.30;8.28;;;;;;;11.54;76.45;99944.10;1733298;82;25645;-68
2023/11/08 10:07:07;;;;;;;13.28;8.00;;;;;;;11.38;75.81;99943.02;1733237;82;27316;-68
2023/11/08 10:09:36;;;;;;;10.95;7.58;;;;;;;11.27;76.19;99945.28;1733284;82;25635;-67
2023/11/08 10:12:06;;;;;;;15.70;8.05;;;;;;;11.13;75.97;99944.09;1733375;82;25619;-68
2023/11/08 10:14:44;;;;;;;14.87;8.05;;;;;;;11.05;76.49;99941.41;1733464;82;26249;-67
2023/11/08 10:17:06;;;;;;;17.17;7.90;;;;;;;11.01;76.54;99944.73;1732665;82;25558;-67
2023/11/08 10:19:45;;;;;;;12.05;8.38;;;;;;;11.20;77.03;99939.00;1733310;82;27572;-69
2023/11/08 10:22:21;;;;;;;11.12;8.68;;;;;;;11.16;76.48;99948.08;1733302;82;25455;-66
2023/11/08 10:25:05;;;;;;;9.90;8.55;;;;;;;11.05;76.07;99935.98;1733307;82;25528;-67
2023/11/08 10:27:34;;;;;;;13.18;9.20;;;;;;;10.93;76.06;99942.86;1733294;82;25614;-66
2023/11/08 10:30:20;;;;;;;13.25;10.00;;;;;;;10.88;76.07;99945.73;1733526;82;33453;-67
2023/11/08 10:32:49;;;;;;;14.60;9.80;;;;;;;10.81;76.34;99939.98;1733414;82;28091;-67
2023/11/08 10:35:21;;;;;;;10.10;8.40;;;;;;;10.79;76.54;99942.22;1733505;82;25454;-68
2023/11/08 10:37:49;;;;;;;10.93;8.33;;;;;;;10.80;76.94;99940.55;1733474;82;25490;-68
2023/11/08 10:40:21;;;;;;;12.33;8.50;;;;;;;10.85;77.26;99938.25;1733376;82;25613;-67
2023/11/08 10:42:55;;;;;;;16.60;11.73;;;;;;;10.92;76.86;99933.14;1733364;82;25614;-68
2023/11/08 10:45:22;;;;;;;14.23;11.33;;;;;;;10.97;76.65;99930.84;1732737;82;27381;-67
2023/11/08 10:47:51;;;;;;;13.00;9.05;;;;;;;11.02;76.70;99924.70;1732207;82;25880;-69
2023/11/08 10:50:20;;;;;;;15.72;8.58;;;;;;;11.14;76.44;99922.69;1733575;82;25688;-68
2023/11/08 10:52:46;;;;;;;10.58;7.22;;;;;;;11.18;76.68;99916.06;1733290;82;25701;-68
2023/11/08 10:55:15;;;;;;;11.10;7.17;;;;;;;11.19;76.06;99914.96;1733044;82;25404;-69
2023/11/08 10:57:50;;;;;;;9.83;7.55;;;;;;;11.23;76.01;99909.70;1733449;82;27333;-69
2023/11/08 11:00:21;;;;;;;39.83;29.05;;;;;;;11.26;76.08;99913.11;1732782;82;25481;-69
2023/11/08 11:03:02;;;;;;;11.93;8.13;;;;;;;11.38;77.53;99912.67;1733614;82;25434;-68
2023/11/08 11:05:34;;;;;;;10.38;7.22;;;;;;;11.56;76.94;99913.42;1733747;82;25618;-68
2023/11/08 11:08:03;;;;;;;7.95;6.78;;;;;;;11.85;77.51;99913.22;1733620;82;25398;-60
2023/11/08 11:10:31;;;;;;;;;;;;;;;12.27;77.65;99916.02;1735844;82;27391;-64
2023/11/08 11:13:13;;;;;;;9.70;6.40;;;;;;;12.43;74.36;99914.06;1733185;82;25585;-62
2023/11/08 11:16:09;;;;;;;10.40;6.62;;;;;;;12.31;74.43;99915.60;1733270;82;25615;-68
2023/11/08 11:18:45;;;;;;;10.40;6.90;;;;;;;12.36;74.39;99906.48;1646019;87;25641;-66
2023/11/08 11:21:43;;;;;;;7.50;5.62;;;;;;;12.40;72.89;99918.25;1646492;87;25658;-64
2023/11/08 11:24:39;;;;;;;10.10;7.03;;;;;;;12.33;73.43;99916.63;1637808;87;27376;-65
2023/11/08 11:27:10;;;;;;;10.32;6.33;;;;;;;12.39;73.35;99915.86;1661835;86;25550;-67
2023/11/08 11:29:39;;;;;;;7.60;6.65;;;;;;;12.56;72.09;99914.38;1662735;86;25493;-69
2023/11/08 11:32:28;;;;;;;9.78;6.70;;;;;;;12.53;71.96;99912.31;1663720;86;25633;-68